createdAt,value
2022-09-15T00:01:24.221Z,81.41
2022-09-15T00:04:30.229Z,81.59
2022-09-15T00:07:34.477Z,81.58
2022-09-15T00:10:40.373Z,81.54
2022-09-15T00:13:47.119Z,81.64
2022-09-15T00:16:53.011Z,81.70
2022-09-15T00:19:59.643Z,81.77
2022-09-15T00:23:05.545Z,81.99
2022-09-15T00:26:13.743Z,81.93
2022-09-15T00:29:19.698Z,82.12
2022-09-15T00:32:23.905Z,82.11
2022-09-15T00:35:30.076Z,82.17
2022-09-15T00:38:37.377Z,82.14
2022-09-15T00:41:43.661Z,82.21
2022-09-15T00:44:56.603Z,82.19
2022-09-15T00:48:02.774Z,82.15
2022-09-15T00:51:10.969Z,82.09
2022-09-15T00:54:21.413Z,82.30
2022-09-15T00:57:37.275Z,82.24
2022-09-15T01:00:47.883Z,82.35
2022-09-15T01:03:53.815Z,82.16
2022-09-15T01:07:04.243Z,82.18
2022-09-15T01:10:14.647Z,82.21
2022-09-15T01:13:20.929Z,82.21
2022-09-15T01:16:34.453Z,82.40
2022-09-15T01:20:25.026Z,82.36
2022-09-15T01:23:50.823Z,82.39
2022-09-15T01:27:37.577Z,82.61
2022-09-15T01:30:41.449Z,82.64
2022-09-15T01:33:51.474Z,82.55
2022-09-15T01:37:03.438Z,82.59
2022-09-15T01:40:13.449Z,82.49
2022-09-15T01:43:21.742Z,82.43
2022-09-15T01:46:31.027Z,82.56
2022-09-15T01:49:44.102Z,82.62
2022-09-15T01:52:53.469Z,82.57
2022-09-15T01:56:02.626Z,82.67
2022-09-15T01:59:09.566Z,82.58
2022-09-15T02:02:20.493Z,82.58
2022-09-15T02:05:33.821Z,82.64
2022-09-15T02:08:45.402Z,82.62
2022-09-15T02:12:01.909Z,82.62
2022-09-15T02:15:12.205Z,82.76
2022-09-15T02:18:24.486Z,82.90
2022-09-15T02:21:37.447Z,82.87
2022-09-15T02:24:47.194Z,82.71
2022-09-15T02:27:56.593Z,82.90
2022-09-15T02:31:05.275Z,82.76
2022-09-15T02:34:16.211Z,82.95
2022-09-15T02:37:24.480Z,82.93
2022-09-15T02:40:32.413Z,82.75
2022-09-15T02:43:47.366Z,83.01
2022-09-15T02:46:53.665Z,82.90
2022-09-15T02:49:59.537Z,82.89
2022-09-15T02:53:06.158Z,82.89
2022-09-15T02:56:12.306Z,83.04
2022-09-15T02:59:18.415Z,83.15
2022-09-15T03:02:25.119Z,83.01
2022-09-15T03:05:32.338Z,82.98
2022-09-15T03:08:38.271Z,83.08
2022-09-15T03:11:44.123Z,83.01
2022-09-15T03:14:50.562Z,82.75
2022-09-15T03:17:56.946Z,82.93
2022-09-15T03:21:03.589Z,82.99
2022-09-15T03:24:09.630Z,83.13
2022-09-15T03:27:14.274Z,83.17
2022-09-15T03:30:20.262Z,83.04
2022-09-15T03:33:26.745Z,83.24
2022-09-15T03:36:32.657Z,83.49
2022-09-15T03:39:38.764Z,83.49
2022-09-15T03:42:44.629Z,83.55
2022-09-15T03:45:50.524Z,83.52
2022-09-15T03:48:57.141Z,83.42
2022-09-15T03:52:03.557Z,83.37
2022-09-15T03:55:10.439Z,83.38
2022-09-15T03:58:16.563Z,83.29
2022-09-15T04:01:23.250Z,83.26
2022-09-15T04:04:29.623Z,83.38
2022-09-15T04:07:35.478Z,83.57
2022-09-15T04:10:43.090Z,83.58
2022-09-15T04:13:49.430Z,83.66
2022-09-15T04:16:55.302Z,83.70
2022-09-15T04:20:01.183Z,83.67
2022-09-15T04:23:07.097Z,83.80
2022-09-15T04:26:20.350Z,83.85
2022-09-15T04:29:26.410Z,83.91
2022-09-15T04:32:31.226Z,83.90
2022-09-15T04:35:37.078Z,83.68
2022-09-15T04:38:43.509Z,83.85
2022-09-15T04:41:49.388Z,83.84
2022-09-15T04:44:55.279Z,84.03
2022-09-15T04:48:01.456Z,83.90
2022-09-15T04:51:09.715Z,83.90
2022-09-15T04:54:15.578Z,83.91
2022-09-15T04:57:21.464Z,83.87
2022-09-15T05:00:27.871Z,83.66
2022-09-15T05:03:36.398Z,83.81
2022-09-15T05:06:42.298Z,83.63
2022-09-15T05:09:48.147Z,83.72
2022-09-15T05:12:54.408Z,84.02
2022-09-15T05:16:07.183Z,83.90
2022-09-15T05:19:13.653Z,84.05
2022-09-15T05:22:19.534Z,84.15
2022-09-15T05:25:25.694Z,84.03
2022-09-15T05:28:33.925Z,84.02
2022-09-15T05:31:39.868Z,84.18
2022-09-15T05:34:44.327Z,84.30
2022-09-15T05:37:50.541Z,84.39
2022-09-15T05:40:56.405Z,84.45
2022-09-15T05:44:02.261Z,84.51
2022-09-15T05:47:08.578Z,84.53
2022-09-15T05:50:14.966Z,84.61
2022-09-15T05:53:21.712Z,84.48
2022-09-15T05:56:27.618Z,84.49
2022-09-15T05:59:33.490Z,84.58
2022-09-15T06:02:39.387Z,84.63
2022-09-15T06:05:45.418Z,84.63
2022-09-15T06:08:58.125Z,84.74
2022-09-15T06:12:05.860Z,84.78
2022-09-15T06:15:13.219Z,84.88
2022-09-15T06:18:19.096Z,85.00
2022-09-15T06:21:26.781Z,85.10
2022-09-15T06:24:32.658Z,85.14
2022-09-15T06:27:38.526Z,85.40
2022-09-15T06:30:49.028Z,85.45
2022-09-15T06:33:57.881Z,85.36
2022-09-15T06:37:03.814Z,85.39
2022-09-15T06:40:12.085Z,85.52
2022-09-15T06:43:17.953Z,85.42
2022-09-15T06:46:25.652Z,85.43
2022-09-15T06:49:31.962Z,85.64
2022-09-15T06:52:37.835Z,85.74
2022-09-15T06:55:43.716Z,85.60
2022-09-15T06:58:50.306Z,85.54
2022-09-15T07:02:00.337Z,85.50
2022-09-15T07:05:11.637Z,85.54
2022-09-15T07:08:17.563Z,85.52
2022-09-15T07:11:21.781Z,85.50
2022-09-15T07:14:27.641Z,85.45
2022-09-15T07:17:33.534Z,85.43
2022-09-15T07:20:39.690Z,85.30
2022-09-15T07:23:46.370Z,85.10
2022-09-15T07:26:52.193Z,85.14
2022-09-15T07:29:58.106Z,85.18
2022-09-15T07:33:02.305Z,84.92
2022-09-15T07:36:10.255Z,84.80
2022-09-15T07:39:16.108Z,84.86
2022-09-15T07:42:21.975Z,84.57
2022-09-15T07:45:28.007Z,84.63
2022-09-15T07:48:34.225Z,84.33
2022-09-15T07:51:40.070Z,84.22
2022-09-15T07:54:45.921Z,84.02
2022-09-15T07:57:59.722Z,83.99
2022-09-15T08:01:07.555Z,83.95
2022-09-15T08:04:13.505Z,83.77
2022-09-15T08:07:17.773Z,83.59
2022-09-15T08:10:25.344Z,83.23
2022-09-15T08:13:31.652Z,83.28
2022-09-15T08:16:37.680Z,83.08
2022-09-15T08:19:43.667Z,82.95
2022-09-15T08:22:48.311Z,82.83
2022-09-15T08:25:54.196Z,82.69
2022-09-15T08:28:59.355Z,82.56
2022-09-15T08:32:05.643Z,82.44
2022-09-15T08:35:12.257Z,82.43
2022-09-15T08:38:18.108Z,82.32
2022-09-15T08:41:26.958Z,82.26
2022-09-15T08:44:44.486Z,82.13
2022-09-15T08:47:56.083Z,81.86
2022-09-15T08:51:06.968Z,81.87
2022-09-15T08:54:20.717Z,81.81
2022-09-15T08:57:27.677Z,82.13
2022-09-15T09:00:33.947Z,81.81
2022-09-15T09:03:59.176Z,81.27
2022-09-15T09:07:18.539Z,81.40
2022-09-15T09:10:33.111Z,81.46
2022-09-15T09:13:47.921Z,81.55
2022-09-15T09:17:04.360Z,81.14
2022-09-15T09:20:32.166Z,81.07
2022-09-15T09:23:48.657Z,81.21
2022-09-15T09:26:56.639Z,81.39
2022-09-15T09:30:08.767Z,81.40
2022-09-15T09:33:26.867Z,81.47
2022-09-15T09:36:32.799Z,81.64
2022-09-15T09:39:37.245Z,81.69
2022-09-15T09:42:44.706Z,81.56
2022-09-15T09:45:50.620Z,81.41
2022-09-15T09:48:58.430Z,81.45
2022-09-15T09:52:05.302Z,81.34
2022-09-15T09:55:24.003Z,81.69
2022-09-15T09:58:29.860Z,81.88
2022-09-15T10:01:35.781Z,81.63
2022-09-15T10:04:40.426Z,81.86
2022-09-15T10:07:46.409Z,81.92
2022-09-15T10:10:55.988Z,81.95
2022-09-15T10:14:02.174Z,81.63
2022-09-15T10:17:11.860Z,81.44
2022-09-15T10:20:32.581Z,81.48
2022-09-15T10:23:38.804Z,81.34
2022-09-15T10:26:46.078Z,81.29
2022-09-15T10:29:52.022Z,81.30
2022-09-15T10:32:56.909Z,81.31
2022-09-15T10:36:12.973Z,81.13
2022-09-15T10:39:31.881Z,81.31
2022-09-15T10:43:00.528Z,81.25
2022-09-15T10:46:13.912Z,80.97
2022-09-15T10:49:34.571Z,80.95
2022-09-15T10:52:50.666Z,81.03
2022-09-15T10:56:04.635Z,81.05
2022-09-15T10:59:35.501Z,81.06
2022-09-15T11:03:23.593Z,80.84
2022-09-15T11:06:37.641Z,81.01
2022-09-15T11:09:48.385Z,80.78
2022-09-15T11:13:03.985Z,80.81
2022-09-15T11:16:17.346Z,80.65
2022-09-15T11:19:38.915Z,80.30
2022-09-15T11:22:49.897Z,80.18
2022-09-15T11:26:01.654Z,80.08
2022-09-15T11:29:15.169Z,80.23
2022-09-15T11:32:26.918Z,80.10
2022-09-15T11:35:39.217Z,79.88
2022-09-15T11:38:53.222Z,79.90
2022-09-15T11:42:08.725Z,79.80
2022-09-15T11:45:20.081Z,79.68
2022-09-15T11:48:31.674Z,79.73
2022-09-15T11:51:42.482Z,79.68
2022-09-15T11:54:54.861Z,79.67
2022-09-15T11:58:21.055Z,79.77
2022-09-15T12:01:31.364Z,79.54
2022-09-15T12:04:44.218Z,79.30
2022-09-15T12:07:56.961Z,79.34
2022-09-15T12:11:08.869Z,79.18
2022-09-15T12:14:18.302Z,79.30
2022-09-15T12:17:37.042Z,79.06
2022-09-15T12:20:49.989Z,79.06
2022-09-15T12:24:01.562Z,79.35
2022-09-15T12:27:11.526Z,79.18
2022-09-15T12:30:41.224Z,78.70
2022-09-15T12:33:57.048Z,78.66
2022-09-15T12:37:12.719Z,78.57
2022-09-15T12:40:33.833Z,78.42
2022-09-15T12:43:39.897Z,77.98
2022-09-15T12:46:54.400Z,78.13
2022-09-15T12:50:06.898Z,77.68
2022-09-15T12:53:22.931Z,77.66
2022-09-15T12:56:31.339Z,77.81
2022-09-15T12:59:37.213Z,77.70
2022-09-15T13:02:45.747Z,77.88
2022-09-15T13:06:10.114Z,77.81
2022-09-15T13:09:29.466Z,77.73
2022-09-15T13:12:42.512Z,77.62
2022-09-15T13:15:52.318Z,77.50
2022-09-15T13:19:07.559Z,77.15
2022-09-15T13:22:23.882Z,77.17
2022-09-15T13:25:31.912Z,77.31
2022-09-15T13:28:38.518Z,77.31
2022-09-15T13:31:53.514Z,77.33
2022-09-15T13:35:25.135Z,77.24
2022-09-15T13:38:52.114Z,77.05
2022-09-15T13:42:19.635Z,77.15
2022-09-15T13:45:42.818Z,77.05
2022-09-15T13:49:00.531Z,77.04
2022-09-15T13:52:25.269Z,77.06
2022-09-15T13:55:33.878Z,77.06
2022-09-15T13:59:06.761Z,77.11
2022-09-15T14:02:13.025Z,77.06
2022-09-15T14:05:21.419Z,77.12
2022-09-15T14:08:32.397Z,77.08
2022-09-15T14:11:40.791Z,76.89
2022-09-15T14:14:52.436Z,77.01
2022-09-15T14:17:58.702Z,77.00
2022-09-15T14:21:06.614Z,77.02
2022-09-15T14:24:22.623Z,77.06
2022-09-15T14:27:31.385Z,77.11
2022-09-15T14:30:38.263Z,77.23
2022-09-15T14:33:46.939Z,77.40
2022-09-15T14:37:04.671Z,77.48
2022-09-15T14:40:24.835Z,77.57
2022-09-15T14:43:35.732Z,77.46
2022-09-15T14:46:41.666Z,77.62
2022-09-15T14:49:45.918Z,77.54
2022-09-15T14:52:54.602Z,77.66
2022-09-15T14:56:08.310Z,77.86
2022-09-15T14:59:20.757Z,77.81
2022-09-15T15:02:35.325Z,77.90
2022-09-15T15:05:46.434Z,77.96
2022-09-15T15:08:58.286Z,78.09
2022-09-15T15:12:09.178Z,77.88
2022-09-15T15:15:17.143Z,78.23
2022-09-15T15:18:39.186Z,78.32
2022-09-15T15:21:48.323Z,78.16
2022-09-15T15:24:55.142Z,78.42
2022-09-15T15:28:02.099Z,78.39
2022-09-15T15:31:17.202Z,78.45
2022-09-15T15:34:26.674Z,78.50
2022-09-15T15:37:34.680Z,78.66
2022-09-15T15:40:41.903Z,78.77
2022-09-15T15:44:00.242Z,78.78
2022-09-15T15:47:26.478Z,78.84
2022-09-15T15:50:33.491Z,78.98
2022-09-15T15:53:40.345Z,79.01
2022-09-15T15:56:47.073Z,79.21
2022-09-15T16:00:00.722Z,79.12
2022-09-15T16:03:07.270Z,79.04
2022-09-15T16:06:13.637Z,79.38
2022-09-15T16:09:21.441Z,79.59
2022-09-15T16:12:30.690Z,79.46
2022-09-15T16:15:39.135Z,79.58
2022-09-15T16:18:43.586Z,79.72
2022-09-15T16:21:49.451Z,79.67
2022-09-15T16:24:55.809Z,79.74
2022-09-15T16:28:01.819Z,79.84
2022-09-15T16:31:10.330Z,80.05
2022-09-15T16:34:21.585Z,79.92
2022-09-15T16:37:27.473Z,80.12
2022-09-15T16:40:31.745Z,80.02
2022-09-15T16:43:37.650Z,80.29
2022-09-15T16:46:44.002Z,80.28
2022-09-15T16:49:51.367Z,80.36
2022-09-15T16:52:57.675Z,80.44
2022-09-15T16:56:03.879Z,80.58
2022-09-15T16:59:09.823Z,80.50
2022-09-15T17:02:15.394Z,80.50
2022-09-15T17:05:22.138Z,80.65
2022-09-15T17:08:30.278Z,80.78
2022-09-15T17:11:36.143Z,80.68
2022-09-15T17:14:42.020Z,80.69
2022-09-15T17:17:48.299Z,80.65
2022-09-15T17:20:54.270Z,80.66
2022-09-15T17:23:58.510Z,80.70
2022-09-15T17:27:04.386Z,80.77
2022-09-15T17:30:13.314Z,80.95
2022-09-15T17:33:20.886Z,80.73
2022-09-15T17:36:27.361Z,80.85
2022-09-15T17:39:34.322Z,81.02
2022-09-15T17:42:40.243Z,80.87
2022-09-15T17:45:44.531Z,80.94
2022-09-15T17:48:50.395Z,80.95
2022-09-15T17:51:56.268Z,81.04
2022-09-15T17:55:02.381Z,81.05
2022-09-15T17:58:08.550Z,80.82
2022-09-15T18:01:16.478Z,81.04
2022-09-15T18:04:22.473Z,81.05
2022-09-15T18:07:26.938Z,81.08
2022-09-15T18:10:34.022Z,81.10
2022-09-15T18:13:40.149Z,81.24
2022-09-15T18:16:47.051Z,81.20
2022-09-15T18:19:53.406Z,81.24
2022-09-15T18:23:00.321Z,81.18
2022-09-15T18:26:06.260Z,81.28
2022-09-15T18:29:10.542Z,81.45
2022-09-15T18:32:16.426Z,81.53
2022-09-15T18:35:24.077Z,81.44
2022-09-15T18:38:30.076Z,81.55
2022-09-15T18:41:37.652Z,81.60
2022-09-15T18:44:43.693Z,81.63
2022-09-15T18:47:51.929Z,81.78
2022-09-15T18:50:58.257Z,81.56
2022-09-15T18:54:04.783Z,81.69
2022-09-15T18:57:10.970Z,81.82
2022-09-15T19:00:19.742Z,82.01
2022-09-15T19:03:25.620Z,82.08
2022-09-15T19:06:31.847Z,82.25
2022-09-15T19:09:38.367Z,82.24
2022-09-15T19:12:44.620Z,82.15
2022-09-15T19:15:53.432Z,82.14
2022-09-15T19:18:59.679Z,82.29
2022-09-15T19:22:03.895Z,82.36
2022-09-15T19:25:12.236Z,82.26
2022-09-15T19:28:18.102Z,82.17
2022-09-15T19:31:24.623Z,82.44
2022-09-15T19:34:30.686Z,82.22
2022-09-15T19:37:36.898Z,82.33
2022-09-15T19:40:42.799Z,82.11
2022-09-15T19:43:48.697Z,82.09
2022-09-15T19:46:54.905Z,82.28
2022-09-15T19:50:00.975Z,82.50
2022-09-15T19:53:05.250Z,82.40
2022-09-15T19:56:17.059Z,82.40
2022-09-15T19:59:27.396Z,82.46
2022-09-15T20:02:36.513Z,82.45
2022-09-15T20:05:42.716Z,82.27
2022-09-15T20:08:48.890Z,82.39
2022-09-15T20:11:54.997Z,82.25
2022-09-15T20:15:01.075Z,82.34
2022-09-15T20:18:06.519Z,82.46
2022-09-15T20:21:26.769Z,82.41
2022-09-15T20:24:39.075Z,82.48
2022-09-15T20:27:45.398Z,82.43
2022-09-15T20:31:01.431Z,82.47
2022-09-15T20:34:07.592Z,82.31
2022-09-15T20:37:13.890Z,82.50
2022-09-15T20:40:20.076Z,82.38
2022-09-15T20:43:26.434Z,82.48
2022-09-15T20:46:32.645Z,82.54
2022-09-15T20:49:39.364Z,82.47
2022-09-15T20:52:45.751Z,82.55
2022-09-15T20:55:54.697Z,82.31
2022-09-15T20:59:01.866Z,82.38
2022-09-15T21:02:09.355Z,82.32
2022-09-15T21:05:15.486Z,82.23
2022-09-15T21:08:21.558Z,82.39
2022-09-15T21:11:26.705Z,82.14
2022-09-15T21:14:32.797Z,82.50
2022-09-15T21:17:37.421Z,82.35
2022-09-15T21:20:43.619Z,82.47
2022-09-15T21:23:51.573Z,82.29
2022-09-15T21:27:15.038Z,82.37
2022-09-15T21:30:21.823Z,82.24
2022-09-15T21:33:28.039Z,82.43
2022-09-15T21:36:34.582Z,82.51
2022-09-15T21:39:40.732Z,82.52
2022-09-15T21:42:46.922Z,82.44
2022-09-15T21:45:58.188Z,82.42
2022-09-15T21:49:04.391Z,82.29
2022-09-15T21:52:11.004Z,82.24
2022-09-15T21:55:17.197Z,82.27
2022-09-15T21:58:26.026Z,82.23
2022-09-15T22:01:34.139Z,82.13
2022-09-15T22:04:40.255Z,82.24
2022-09-15T22:07:44.691Z,82.27
2022-09-15T22:10:50.762Z,82.41
2022-09-15T22:13:55.907Z,82.32
2022-09-15T22:17:01.990Z,82.24
2022-09-15T22:20:09.383Z,82.47
2022-09-15T22:23:15.471Z,82.50
2022-09-15T22:26:20.970Z,82.44
2022-09-15T22:29:27.338Z,82.42
2022-09-15T22:32:33.474Z,82.46
2022-09-15T22:35:37.863Z,82.25
2022-09-15T22:38:44.499Z,82.41
2022-09-15T22:41:50.709Z,82.26
2022-09-15T22:44:55.436Z,82.08
2022-09-15T22:48:01.551Z,82.26
2022-09-15T22:51:05.918Z,82.43
2022-09-15T22:54:12.052Z,82.15
2022-09-15T22:57:16.446Z,82.21
2022-09-15T23:00:23.496Z,82.28
2022-09-15T23:03:29.447Z,82.26
2022-09-15T23:06:36.758Z,82.32
2022-09-15T23:09:42.720Z,82.24
2022-09-15T23:12:48.567Z,82.36
2022-09-15T23:15:54.489Z,82.30
2022-09-15T23:19:01.002Z,82.24
2022-09-15T23:22:06.927Z,82.44
2022-09-15T23:25:13.326Z,82.31
2022-09-15T23:28:19.448Z,82.33
2022-09-15T23:31:24.063Z,82.31
2022-09-15T23:34:30.051Z,82.28
2022-09-15T23:37:36.175Z,82.34
2022-09-15T23:40:41.427Z,82.22
2022-09-15T23:43:47.596Z,82.48
2022-09-15T23:46:53.574Z,82.23
2022-09-15T23:49:57.827Z,82.45
2022-09-15T23:53:03.750Z,82.43
2022-09-15T23:56:09.900Z,82.27
2022-09-15T23:59:14.139Z,82.39
